createdAt,value
2023-04-18T00:01:31.929Z,12.75
2023-04-18T00:03:58.513Z,12.88
2023-04-18T00:06:26.162Z,12.89
2023-04-18T00:08:52.949Z,12.51
2023-04-18T00:11:19.496Z,12.40
2023-04-18T00:13:47.469Z,12.50
2023-04-18T00:16:14.514Z,12.45
2023-04-18T00:18:41.188Z,12.36
2023-04-18T00:21:08.750Z,12.31
2023-04-18T00:23:35.868Z,12.28
2023-04-18T00:26:02.941Z,12.46
2023-04-18T00:28:29.508Z,12.34
2023-04-18T00:30:56.090Z,12.36
2023-04-18T00:33:22.816Z,12.36
2023-04-18T00:35:49.399Z,12.30
2023-04-18T00:38:15.983Z,12.22
2023-04-18T00:40:42.937Z,12.02
2023-04-18T00:43:09.527Z,11.91
2023-04-18T00:45:37.067Z,12.00
2023-04-18T00:48:03.696Z,11.87
2023-04-18T00:50:31.806Z,11.92
2023-04-18T00:52:59.249Z,11.92
2023-04-18T00:55:25.982Z,11.79
2023-04-18T00:57:52.691Z,11.55
2023-04-18T01:00:19.334Z,11.64
2023-04-18T01:02:47.131Z,11.58
2023-04-18T01:05:13.986Z,11.71
2023-04-18T01:07:43.363Z,11.67
2023-04-18T01:10:11.131Z,11.62
2023-04-18T01:12:37.771Z,11.40
2023-04-18T01:15:05.740Z,11.26
2023-04-18T01:17:34.645Z,11.31
2023-04-18T01:20:02.487Z,11.13
2023-04-18T01:22:31.844Z,11.21
2023-04-18T01:24:58.719Z,11.20
2023-04-18T01:27:25.373Z,11.43
2023-04-18T01:29:51.891Z,11.41
2023-04-18T01:32:20.464Z,11.33
2023-04-18T01:34:47.436Z,11.05
2023-04-18T01:37:14.157Z,11.02
2023-04-18T01:39:40.716Z,11.21
2023-04-18T01:42:07.234Z,11.22
2023-04-18T01:44:33.894Z,11.09
2023-04-18T01:47:00.541Z,11.14
2023-04-18T01:49:27.108Z,11.04
2023-04-18T01:51:53.708Z,10.90
2023-04-18T01:54:20.275Z,11.10
2023-04-18T01:56:46.796Z,10.77
2023-04-18T01:59:13.393Z,10.66
2023-04-18T02:01:40.494Z,10.60
2023-04-18T02:04:07.154Z,10.76
2023-04-18T02:06:34.496Z,10.75
2023-04-18T02:09:01.038Z,10.63
2023-04-18T02:11:27.572Z,10.59
2023-04-18T02:13:54.124Z,10.62
2023-04-18T02:16:20.978Z,10.54
2023-04-18T02:18:47.671Z,10.53
2023-04-18T02:21:14.231Z,10.44
2023-04-18T02:23:40.777Z,10.40
2023-04-18T02:26:07.306Z,10.48
2023-04-18T02:28:34.537Z,10.24
2023-04-18T02:31:01.284Z,10.07
2023-04-18T02:33:27.945Z,10.02
2023-04-18T02:35:54.449Z,10.03
2023-04-18T02:38:21.053Z,10.03
2023-04-18T02:40:47.634Z,10.01
2023-04-18T02:43:14.202Z,10.13
2023-04-18T02:45:41.591Z,10.06
2023-04-18T02:48:08.364Z,9.94
2023-04-18T02:50:36.195Z,9.93
2023-04-18T02:53:02.741Z,9.86
2023-04-18T02:55:29.388Z,10.03
2023-04-18T02:57:57.052Z,9.90
2023-04-18T03:00:23.693Z,10.09
2023-04-18T03:02:50.724Z,10.13
2023-04-18T03:05:17.407Z,10.33
2023-04-18T03:07:43.915Z,10.32
2023-04-18T03:10:10.828Z,10.31
2023-04-18T03:12:37.555Z,10.27
2023-04-18T03:15:04.507Z,10.26
2023-04-18T03:17:31.280Z,10.18
2023-04-18T03:19:57.808Z,10.33
2023-04-18T03:22:24.360Z,10.15
2023-04-18T03:24:51.132Z,10.02
2023-04-18T03:27:17.772Z,9.75
2023-04-18T03:29:44.340Z,9.63
2023-04-18T03:32:10.847Z,9.82
2023-04-18T03:34:37.443Z,9.64
2023-04-18T03:37:03.968Z,9.80
2023-04-18T03:39:30.559Z,9.96
2023-04-18T03:41:57.153Z,9.78
2023-04-18T03:44:23.679Z,9.73
2023-04-18T03:46:50.334Z,9.72
2023-04-18T03:49:16.897Z,9.72
2023-04-18T03:51:47.782Z,9.58
2023-04-18T03:54:15.816Z,9.50
2023-04-18T03:56:42.824Z,9.51
2023-04-18T03:59:09.889Z,9.70
2023-04-18T04:01:36.651Z,9.73
2023-04-18T04:04:04.486Z,9.41
2023-04-18T04:06:32.217Z,9.44
2023-04-18T04:08:58.764Z,9.59
2023-04-18T04:11:25.507Z,9.72
2023-04-18T04:13:52.075Z,9.81
2023-04-18T04:16:18.761Z,9.78
2023-04-18T04:18:45.408Z,9.76
2023-04-18T04:21:12.570Z,9.80
2023-04-18T04:23:42.676Z,9.60
2023-04-18T04:26:09.406Z,9.51
2023-04-18T04:28:36.147Z,9.18
2023-04-18T04:31:06.451Z,9.54
2023-04-18T04:33:33.365Z,9.62
2023-04-18T04:36:01.282Z,9.52
2023-04-18T04:38:31.047Z,9.35
2023-04-18T04:40:58.656Z,9.34
2023-04-18T04:43:28.662Z,9.33
2023-04-18T04:45:55.823Z,9.09
2023-04-18T04:48:22.537Z,9.06
2023-04-18T04:50:57.010Z,8.92
2023-04-18T04:53:25.698Z,8.84
2023-04-18T04:55:52.366Z,8.81
2023-04-18T04:58:20.046Z,9.01
2023-04-18T05:00:46.574Z,9.07
2023-04-18T05:03:13.269Z,9.23
2023-04-18T05:05:40.213Z,9.09
2023-04-18T05:08:06.900Z,8.95
2023-04-18T05:10:34.761Z,8.89
2023-04-18T05:13:01.289Z,8.97
2023-04-18T05:15:27.911Z,9.00
2023-04-18T05:17:54.515Z,8.81
2023-04-18T05:20:21.245Z,8.80
2023-04-18T05:22:47.760Z,8.89
2023-04-18T05:25:14.478Z,8.85
2023-04-18T05:27:41.265Z,8.57
2023-04-18T05:30:08.347Z,8.47
2023-04-18T05:32:35.036Z,8.40
2023-04-18T05:35:01.583Z,8.42
2023-04-18T05:37:28.177Z,8.34
2023-04-18T05:39:54.694Z,8.53
2023-04-18T05:42:21.248Z,8.75
2023-04-18T05:44:47.785Z,8.73
2023-04-18T05:47:14.333Z,8.75
2023-04-18T05:49:41.016Z,8.65
2023-04-18T05:52:07.526Z,8.51
2023-04-18T05:54:34.088Z,8.43
2023-04-18T05:57:02.176Z,8.50
2023-04-18T05:59:30.440Z,8.57
2023-04-18T06:01:57.240Z,8.67
2023-04-18T06:04:23.864Z,8.78
2023-04-18T06:06:50.712Z,8.59
2023-04-18T06:09:17.680Z,8.68
2023-04-18T06:11:44.225Z,8.74
2023-04-18T06:14:10.995Z,8.73
2023-04-18T06:16:37.903Z,8.71
2023-04-18T06:19:05.389Z,8.65
2023-04-18T06:21:32.173Z,8.99
2023-04-18T06:23:58.734Z,9.19
2023-04-18T06:26:25.499Z,9.13
2023-04-18T06:28:52.095Z,9.23
2023-04-18T06:31:19.060Z,9.22
2023-04-18T06:33:45.706Z,9.06
2023-04-18T06:36:12.305Z,9.38
2023-04-18T06:38:38.844Z,9.50
2023-04-18T06:41:05.371Z,9.46
2023-04-18T06:43:31.928Z,9.55
2023-04-18T06:45:59.146Z,9.77
2023-04-18T06:48:25.706Z,9.73
2023-04-18T06:50:52.240Z,9.67
2023-04-18T06:53:18.769Z,9.78
2023-04-18T06:55:45.590Z,9.77
2023-04-18T06:58:13.905Z,9.95
2023-04-18T07:00:40.490Z,9.96
2023-04-18T07:03:11.378Z,9.94
2023-04-18T07:05:41.000Z,9.73
2023-04-18T07:08:08.288Z,9.81
2023-04-18T07:10:35.002Z,9.99
2023-04-18T07:13:01.627Z,10.20
2023-04-18T07:15:28.543Z,10.29
2023-04-18T07:17:55.335Z,10.45
2023-04-18T07:20:22.564Z,10.58
2023-04-18T07:22:49.187Z,10.64
2023-04-18T07:25:15.844Z,10.58
2023-04-18T07:27:42.488Z,10.67
2023-04-18T07:30:09.761Z,10.81
2023-04-18T07:32:36.432Z,10.83
2023-04-18T07:35:04.190Z,10.81
2023-04-18T07:37:31.357Z,10.74
2023-04-18T07:39:57.903Z,10.80
2023-04-18T07:42:24.424Z,10.67
2023-04-18T07:44:56.326Z,10.84
2023-04-18T07:47:23.348Z,10.95
2023-04-18T07:49:49.882Z,11.02
2023-04-18T07:52:16.491Z,11.08
2023-04-18T07:54:43.005Z,11.10
2023-04-18T07:57:10.812Z,11.06
2023-04-18T07:59:37.419Z,11.18
2023-04-18T08:02:03.997Z,11.10
2023-04-18T08:04:30.780Z,11.09
2023-04-18T08:06:57.429Z,11.20
2023-04-18T08:09:24.197Z,11.34
2023-04-18T08:11:50.746Z,11.38
2023-04-18T08:14:17.359Z,11.40
2023-04-18T08:16:44.007Z,11.38
2023-04-18T08:19:10.670Z,11.46
2023-04-18T08:21:37.310Z,11.54
2023-04-18T08:24:03.903Z,11.59
2023-04-18T08:26:30.784Z,11.60
2023-04-18T08:28:57.741Z,11.67
2023-04-18T08:31:24.662Z,11.83
2023-04-18T08:33:51.364Z,11.73
2023-04-18T08:36:17.870Z,11.74
2023-04-18T08:38:44.389Z,11.82
2023-04-18T08:41:11.051Z,11.93
2023-04-18T08:43:38.161Z,12.01
2023-04-18T08:46:04.859Z,12.06
2023-04-18T08:48:31.466Z,12.10
2023-04-18T08:50:59.255Z,12.27
2023-04-18T08:53:27.611Z,12.29
2023-04-18T08:55:58.020Z,12.37
2023-04-18T08:58:27.103Z,12.37
2023-04-18T09:00:54.604Z,12.45
2023-04-18T09:03:39.754Z,12.52
2023-04-18T09:06:16.121Z,12.57
2023-04-18T09:08:44.062Z,12.61
2023-04-18T09:11:25.918Z,12.63
2023-04-18T09:13:53.450Z,12.67
2023-04-18T09:16:22.376Z,12.64
2023-04-18T09:19:18.614Z,12.80
2023-04-18T09:21:48.979Z,12.83
2023-04-18T09:24:17.696Z,12.98
2023-04-18T09:26:44.242Z,13.03
2023-04-18T09:29:10.812Z,13.02
2023-04-18T09:31:53.662Z,13.27
2023-04-18T09:34:25.130Z,13.58
2023-04-18T09:37:09.916Z,13.52
2023-04-18T09:39:37.272Z,13.34
2023-04-18T09:42:03.992Z,13.35
2023-04-18T09:44:30.653Z,13.46
2023-04-18T09:46:57.258Z,13.69
2023-04-18T09:49:24.161Z,13.99
2023-04-18T09:51:52.183Z,13.98
2023-04-18T09:54:20.570Z,14.12
2023-04-18T09:56:50.598Z,14.08
2023-04-18T09:59:41.509Z,14.03
2023-04-18T10:02:16.458Z,14.07
2023-04-18T10:04:44.967Z,14.07
2023-04-18T10:07:12.081Z,14.17
2023-04-18T10:09:42.673Z,14.32
2023-04-18T10:12:09.560Z,14.39
2023-04-18T10:14:38.574Z,14.65
2023-04-18T10:17:05.215Z,14.53
2023-04-18T10:19:31.879Z,14.60
2023-04-18T10:22:01.398Z,14.57
2023-04-18T10:24:57.009Z,14.65
2023-04-18T10:27:48.482Z,14.70
2023-04-18T10:30:18.553Z,14.76
2023-04-18T10:32:47.978Z,14.73
2023-04-18T10:35:14.667Z,14.85
2023-04-18T10:37:51.733Z,14.73
2023-04-18T10:40:33.685Z,14.74
2023-04-18T10:43:00.549Z,14.68
2023-04-18T10:45:29.745Z,14.60
2023-04-18T10:48:21.903Z,14.53
2023-04-18T10:51:13.048Z,14.63
2023-04-18T10:53:42.443Z,14.79
2023-04-18T10:56:12.718Z,14.84
2023-04-18T10:58:42.333Z,15.00
2023-04-18T11:01:13.993Z,14.90
2023-04-18T11:03:40.718Z,14.71
2023-04-18T11:06:07.421Z,14.84
2023-04-18T11:08:35.058Z,14.99
2023-04-18T11:11:04.924Z,14.96
2023-04-18T11:13:31.840Z,15.10
2023-04-18T11:15:58.493Z,15.12
2023-04-18T11:18:25.080Z,15.23
2023-04-18T11:20:51.846Z,15.19
2023-04-18T11:23:21.571Z,15.19
2023-04-18T11:25:54.498Z,15.34
2023-04-18T11:28:22.239Z,15.42
2023-04-18T11:30:48.951Z,15.28
2023-04-18T11:33:15.870Z,15.32
2023-04-18T11:35:44.319Z,15.37
2023-04-18T11:38:14.030Z,15.61
2023-04-18T11:40:48.251Z,15.70
2023-04-18T11:43:21.691Z,15.67
2023-04-18T11:46:06.471Z,15.60
2023-04-18T11:48:38.247Z,15.50
2023-04-18T11:51:07.592Z,15.58
2023-04-18T11:53:38.935Z,15.57
2023-04-18T11:56:06.685Z,15.41
2023-04-18T11:58:34.672Z,15.48
2023-04-18T12:01:19.494Z,15.44
2023-04-18T12:04:02.412Z,15.52
2023-04-18T12:06:51.772Z,15.49
2023-04-18T12:09:19.392Z,15.46
2023-04-18T12:12:01.033Z,15.54
2023-04-18T12:14:28.252Z,15.54
2023-04-18T12:16:55.269Z,15.66
2023-04-18T12:19:29.417Z,15.78
2023-04-18T12:22:00.875Z,15.90
2023-04-18T12:24:29.988Z,15.93
2023-04-18T12:26:58.152Z,16.05
2023-04-18T12:29:25.740Z,16.15
2023-04-18T12:31:52.520Z,16.27
2023-04-18T12:34:19.479Z,16.33
2023-04-18T12:36:46.400Z,16.42
2023-04-18T12:39:13.409Z,16.48
2023-04-18T12:41:40.652Z,16.27
2023-04-18T12:44:07.425Z,16.33
2023-04-18T12:46:34.183Z,16.19
2023-04-18T12:49:00.883Z,16.03
2023-04-18T12:51:27.997Z,16.14
2023-04-18T12:53:54.672Z,16.28
2023-04-18T12:56:21.572Z,16.22
2023-04-18T12:58:48.093Z,16.21
2023-04-18T13:01:14.723Z,16.02
2023-04-18T13:03:42.131Z,16.27
2023-04-18T13:06:09.110Z,16.18
2023-04-18T13:08:37.595Z,16.31
2023-04-18T13:11:04.359Z,16.30
2023-04-18T13:13:31.034Z,16.20
2023-04-18T13:15:57.679Z,16.19
2023-04-18T13:18:24.493Z,16.33
2023-04-18T13:20:51.208Z,16.18
2023-04-18T13:23:17.740Z,16.23
2023-04-18T13:25:44.321Z,16.31
2023-04-18T13:28:11.003Z,16.27
2023-04-18T13:30:37.604Z,16.31
2023-04-18T13:33:04.222Z,16.21
2023-04-18T13:35:30.969Z,16.41
2023-04-18T13:37:57.523Z,16.58
2023-04-18T13:40:25.238Z,16.71
2023-04-18T13:42:51.983Z,16.72
2023-04-18T13:45:18.835Z,16.44
2023-04-18T13:47:45.521Z,16.38
2023-04-18T13:50:12.316Z,16.44
2023-04-18T13:52:38.856Z,16.33
2023-04-18T13:55:05.916Z,16.26
2023-04-18T13:57:33.609Z,16.33
2023-04-18T14:00:00.400Z,16.50
2023-04-18T14:02:27.121Z,16.35
2023-04-18T14:04:54.953Z,16.38
2023-04-18T14:07:21.687Z,16.32
2023-04-18T14:09:48.253Z,16.30
2023-04-18T14:12:15.868Z,16.40
2023-04-18T14:14:42.505Z,16.42
2023-04-18T14:17:09.036Z,16.62
2023-04-18T14:19:35.603Z,16.59
2023-04-18T14:22:02.129Z,16.41
2023-04-18T14:24:28.747Z,16.49
2023-04-18T14:26:55.764Z,16.47
2023-04-18T14:29:22.459Z,16.58
2023-04-18T14:31:49.079Z,16.52
2023-04-18T14:34:16.173Z,16.56
2023-04-18T14:36:42.764Z,16.56
2023-04-18T14:39:09.376Z,16.48
2023-04-18T14:41:36.150Z,16.52
2023-04-18T14:44:04.052Z,16.68
2023-04-18T14:46:30.873Z,16.75
2023-04-18T14:48:57.496Z,16.79
2023-04-18T14:51:24.197Z,16.85
2023-04-18T14:53:51.211Z,16.96
2023-04-18T14:56:21.163Z,16.85
2023-04-18T14:58:48.660Z,17.04
2023-04-18T15:01:17.676Z,17.24
2023-04-18T15:03:45.424Z,17.23
2023-04-18T15:06:12.498Z,17.36
2023-04-18T15:08:39.090Z,17.34
2023-04-18T15:11:07.500Z,17.19
2023-04-18T15:13:34.363Z,17.29
2023-04-18T15:16:01.450Z,17.34
2023-04-18T15:18:28.140Z,17.46
2023-04-18T15:20:54.880Z,17.39
2023-04-18T15:23:21.608Z,17.47
2023-04-18T15:25:48.362Z,17.18
2023-04-18T15:28:16.253Z,17.28
2023-04-18T15:30:42.790Z,17.44
2023-04-18T15:33:09.398Z,17.51
2023-04-18T15:35:36.162Z,17.53
2023-04-18T15:38:02.869Z,17.60
2023-04-18T15:40:29.441Z,17.59
2023-04-18T15:42:57.827Z,17.69
2023-04-18T15:45:24.484Z,17.68
2023-04-18T15:47:51.690Z,17.57
2023-04-18T15:50:18.601Z,17.52
2023-04-18T15:52:45.441Z,17.47
2023-04-18T15:55:13.190Z,17.62
2023-04-18T15:57:40.706Z,17.76
2023-04-18T16:00:16.265Z,17.97
2023-04-18T16:02:44.514Z,18.72
2023-04-18T16:05:12.505Z,19.08
2023-04-18T16:07:42.741Z,19.52
2023-04-18T16:10:10.902Z,19.84
2023-04-18T16:12:39.120Z,19.97
2023-04-18T16:15:07.097Z,19.99
2023-04-18T16:17:34.011Z,20.16
2023-04-18T16:20:00.619Z,20.39
2023-04-18T16:22:27.280Z,20.41
2023-04-18T16:24:53.833Z,20.27
2023-04-18T16:27:20.574Z,19.95
2023-04-18T16:29:47.280Z,19.81
2023-04-18T16:32:13.925Z,20.36
2023-04-18T16:34:40.609Z,20.24
2023-04-18T16:37:07.256Z,20.04
2023-04-18T16:39:33.789Z,20.14
2023-04-18T16:42:00.354Z,19.77
2023-04-18T16:44:26.965Z,20.13
2023-04-18T16:46:53.926Z,20.24
2023-04-18T16:49:20.635Z,20.61
2023-04-18T16:51:47.223Z,21.26
2023-04-18T16:54:14.015Z,21.48
2023-04-18T16:56:41.389Z,21.64
2023-04-18T16:59:09.368Z,20.87
2023-04-18T17:01:36.223Z,20.71
2023-04-18T17:04:02.995Z,20.97
2023-04-18T17:06:31.525Z,21.00
2023-04-18T17:08:58.883Z,20.98
2023-04-18T17:11:26.504Z,21.10
2023-04-18T17:13:53.100Z,20.92
2023-04-18T17:16:20.186Z,20.91
2023-04-18T17:18:46.858Z,21.07
2023-04-18T17:21:13.546Z,20.20
2023-04-18T17:23:42.337Z,20.20
2023-04-18T17:26:09.907Z,20.09
2023-04-18T17:28:37.008Z,20.06
2023-04-18T17:31:04.245Z,20.12
2023-04-18T17:33:31.506Z,20.43
2023-04-18T17:35:58.263Z,20.64
2023-04-18T17:38:24.916Z,20.26
2023-04-18T17:41:02.012Z,20.43
2023-04-18T17:43:28.938Z,20.47
2023-04-18T17:45:57.013Z,20.01
2023-04-18T17:48:23.701Z,20.04
2023-04-18T17:50:50.297Z,19.75
2023-04-18T17:53:17.609Z,19.18
2023-04-18T17:55:45.195Z,19.03
2023-04-18T17:58:11.746Z,18.80
2023-04-18T18:00:38.314Z,18.54
2023-04-18T18:03:05.266Z,18.47
2023-04-18T18:05:31.932Z,18.20
2023-04-18T18:07:59.949Z,18.09
2023-04-18T18:10:27.396Z,17.96
2023-04-18T18:12:53.966Z,17.89
2023-04-18T18:15:20.739Z,17.79
2023-04-18T18:17:51.119Z,17.71
2023-04-18T18:20:18.399Z,17.64
2023-04-18T18:22:45.050Z,17.51
2023-04-18T18:25:11.752Z,17.44
2023-04-18T18:27:38.482Z,17.37
2023-04-18T18:30:05.879Z,17.32
2023-04-18T18:32:32.492Z,17.25
2023-04-18T18:35:00.063Z,17.19
2023-04-18T18:37:27.400Z,17.13
2023-04-18T18:39:54.874Z,17.06
2023-04-18T18:42:21.437Z,17.03
2023-04-18T18:44:48.104Z,16.99
2023-04-18T18:47:14.668Z,16.94
2023-04-18T18:49:41.332Z,16.93
2023-04-18T18:52:07.876Z,16.87
2023-04-18T18:54:34.536Z,16.79
2023-04-18T18:57:04.107Z,16.75
2023-04-18T18:59:31.665Z,16.72
2023-04-18T19:01:58.441Z,16.70
2023-04-18T19:04:25.262Z,16.68
2023-04-18T19:06:51.908Z,16.66
2023-04-18T19:09:18.845Z,16.63
2023-04-18T19:11:45.531Z,16.60
2023-04-18T19:14:12.160Z,16.58
2023-04-18T19:16:38.717Z,16.59
2023-04-18T19:19:05.421Z,16.57
2023-04-18T19:21:32.823Z,16.51
2023-04-18T19:23:59.714Z,16.45
2023-04-18T19:26:26.382Z,16.40
2023-04-18T19:28:53.513Z,16.37
2023-04-18T19:31:20.150Z,16.37
2023-04-18T19:33:46.693Z,16.33
2023-04-18T19:36:13.524Z,16.26
2023-04-18T19:38:40.037Z,16.16
2023-04-18T19:41:06.586Z,16.06
2023-04-18T19:43:34.679Z,15.98
2023-04-18T19:46:01.324Z,15.91
2023-04-18T19:48:27.946Z,15.85
2023-04-18T19:50:56.474Z,15.80
2023-04-18T19:53:23.788Z,15.73
2023-04-18T19:55:50.513Z,15.69
2023-04-18T19:58:44.678Z,15.62
2023-04-18T20:01:12.199Z,15.57
2023-04-18T20:03:39.710Z,15.58
2023-04-18T20:06:06.740Z,15.59
2023-04-18T20:08:36.355Z,15.55
2023-04-18T20:11:06.381Z,15.53
2023-04-18T20:13:32.961Z,15.46
2023-04-18T20:16:00.027Z,15.38
2023-04-18T20:18:26.644Z,15.34
2023-04-18T20:20:53.269Z,15.30
2023-04-18T20:23:20.058Z,15.25
2023-04-18T20:25:46.655Z,15.23
2023-04-18T20:28:13.176Z,15.19
2023-04-18T20:30:39.843Z,15.20
2023-04-18T20:33:06.924Z,15.20
2023-04-18T20:35:33.762Z,15.10
2023-04-18T20:38:00.640Z,15.06
2023-04-18T20:40:28.261Z,14.99
2023-04-18T20:42:57.899Z,15.02
2023-04-18T20:45:25.028Z,15.03
2023-04-18T20:47:51.625Z,14.98
2023-04-18T20:50:18.376Z,14.97
2023-04-18T20:52:44.933Z,14.95
2023-04-18T20:55:11.834Z,14.91
2023-04-18T20:57:38.454Z,14.88
2023-04-18T21:00:07.629Z,14.86
2023-04-18T21:02:34.244Z,14.87
2023-04-18T21:05:01.024Z,14.91
2023-04-18T21:07:27.533Z,14.90
2023-04-18T21:09:54.088Z,14.92
2023-04-18T21:12:20.706Z,14.91
2023-04-18T21:14:48.104Z,14.90
2023-04-18T21:17:17.425Z,14.84
2023-04-18T21:19:47.720Z,14.82
2023-04-18T21:22:15.266Z,14.78
2023-04-18T21:24:42.082Z,14.76
2023-04-18T21:27:10.654Z,14.77
2023-04-18T21:29:37.958Z,14.74
2023-04-18T21:32:04.816Z,14.75
2023-04-18T21:34:31.375Z,14.76
2023-04-18T21:36:57.915Z,14.78
2023-04-18T21:39:24.469Z,14.73
2023-04-18T21:41:51.010Z,14.74
2023-04-18T21:44:18.856Z,14.73
2023-04-18T21:46:45.673Z,14.70
2023-04-18T21:49:12.227Z,14.66
2023-04-18T21:51:39.267Z,14.65
2023-04-18T21:54:07.705Z,14.60
2023-04-18T21:56:34.240Z,14.53
2023-04-18T21:59:00.989Z,14.47
2023-04-18T22:01:27.731Z,14.41
2023-04-18T22:03:54.460Z,14.41
2023-04-18T22:06:23.106Z,14.40
2023-04-18T22:08:50.063Z,14.38
2023-04-18T22:11:16.727Z,14.41
2023-04-18T22:13:45.017Z,14.44
2023-04-18T22:16:12.076Z,14.39
2023-04-18T22:18:38.665Z,14.36
2023-04-18T22:21:05.306Z,14.28
2023-04-18T22:23:31.832Z,14.26
2023-04-18T22:25:58.435Z,14.24
2023-04-18T22:28:25.177Z,14.22
2023-04-18T22:30:51.771Z,14.17
2023-04-18T22:33:18.419Z,14.11
2023-04-18T22:35:46.989Z,14.11
2023-04-18T22:38:13.562Z,14.09
2023-04-18T22:40:40.091Z,14.07
2023-04-18T22:43:06.600Z,14.02
2023-04-18T22:45:34.605Z,13.87
2023-04-18T22:48:01.366Z,13.83
2023-04-18T22:50:27.964Z,13.84
2023-04-18T22:52:54.561Z,13.82
2023-04-18T22:55:21.203Z,13.85
2023-04-18T22:57:47.732Z,13.85
2023-04-18T23:00:14.745Z,13.83
2023-04-18T23:02:41.648Z,13.83
2023-04-18T23:05:09.010Z,13.77
2023-04-18T23:07:35.748Z,13.79
2023-04-18T23:10:05.208Z,13.81
2023-04-18T23:12:31.736Z,13.77
2023-04-18T23:14:58.282Z,13.73
2023-04-18T23:17:24.935Z,13.72
2023-04-18T23:19:51.462Z,13.71
2023-04-18T23:22:18.001Z,13.70
2023-04-18T23:24:44.605Z,13.73
2023-04-18T23:27:11.099Z,13.72
2023-04-18T23:29:39.206Z,13.69
2023-04-18T23:32:06.442Z,13.67
2023-04-18T23:34:33.012Z,13.71
2023-04-18T23:37:00.538Z,13.67
2023-04-18T23:39:27.077Z,13.63
2023-04-18T23:41:53.636Z,13.61
2023-04-18T23:44:20.277Z,13.60
2023-04-18T23:46:47.474Z,13.57
2023-04-18T23:49:14.559Z,13.51
2023-04-18T23:51:41.140Z,13.51
2023-04-18T23:54:07.692Z,13.45
2023-04-18T23:56:34.578Z,13.40
2023-04-18T23:59:01.170Z,13.38
